createdAt,value
2022-10-15T00:01:32.010Z,11.79
2022-10-15T00:06:29.962Z,11.73
2022-10-15T00:08:57.483Z,11.70
2022-10-15T00:11:27.926Z,11.67
2022-10-15T00:13:59.556Z,11.65
2022-10-15T00:16:28.775Z,11.58
2022-10-15T00:18:59.180Z,11.56
2022-10-15T00:21:27.033Z,11.54
2022-10-15T00:23:55.339Z,11.50
2022-10-15T00:26:28.626Z,11.45
2022-10-15T00:29:00.693Z,11.41
2022-10-15T00:31:30.918Z,11.36
2022-10-15T00:34:01.344Z,11.32
2022-10-15T00:36:33.604Z,11.24
2022-10-15T00:39:02.608Z,11.21
2022-10-15T00:41:38.088Z,11.20
2022-10-15T00:44:20.930Z,11.17
2022-10-15T00:46:53.709Z,11.14
2022-10-15T00:49:30.528Z,11.12
2022-10-15T00:52:04.372Z,11.10
2022-10-15T00:54:39.900Z,11.07
2022-10-15T00:57:10.193Z,11.03
2022-10-15T00:59:47.628Z,11.01
2022-10-15T01:02:18.712Z,10.98
2022-10-15T01:04:48.111Z,10.95
2022-10-15T01:09:46.518Z,10.92
2022-10-15T01:13:16.344Z,10.93
2022-10-15T01:15:59.122Z,10.94
2022-10-15T01:18:47.732Z,10.97
2022-10-15T01:21:44.068Z,11.01
2022-10-15T01:24:43.745Z,11.03
2022-10-15T01:27:29.113Z,11.08
2022-10-15T01:30:22.237Z,11.12
2022-10-15T01:33:37.255Z,11.21
2022-10-15T01:36:35.617Z,11.26
2022-10-15T01:39:28.647Z,11.33
2022-10-15T01:42:05.724Z,11.39
2022-10-15T01:44:46.089Z,11.48
2022-10-15T01:47:31.945Z,11.50
2022-10-15T01:50:03.576Z,11.58
2022-10-15T01:52:38.463Z,11.68
2022-10-15T01:55:11.536Z,11.77
2022-10-15T01:57:44.019Z,11.85
2022-10-15T02:00:12.355Z,11.92
2022-10-15T02:02:43.268Z,11.97
2022-10-15T02:05:42.778Z,12.04
2022-10-15T02:08:40.108Z,12.11
2022-10-15T02:11:15.591Z,12.16
2022-10-15T02:14:05.017Z,12.22
2022-10-15T02:16:49.500Z,12.25
2022-10-15T02:19:49.266Z,12.30
2022-10-15T02:22:52.085Z,12.35
2022-10-15T02:25:24.701Z,12.36
2022-10-15T02:27:56.833Z,12.40
2022-10-15T02:30:26.296Z,12.44
2022-10-15T02:32:59.437Z,12.47
2022-10-15T02:35:28.266Z,12.50
2022-10-15T02:38:03.820Z,12.54
2022-10-15T02:40:37.270Z,12.55
2022-10-15T02:43:10.565Z,12.57
2022-10-15T02:45:38.536Z,12.59
2022-10-15T02:48:07.738Z,12.61
2022-10-15T02:50:35.189Z,12.64
2022-10-15T02:53:03.141Z,12.65
2022-10-15T02:55:30.547Z,12.67
2022-10-15T02:57:58.825Z,12.68
2022-10-15T03:00:26.417Z,12.70
2022-10-15T03:02:54.030Z,12.72
2022-10-15T03:05:21.721Z,12.72
2022-10-15T03:07:49.268Z,12.73
2022-10-15T03:10:16.628Z,12.74
2022-10-15T03:12:44.441Z,12.74
2022-10-15T03:15:13.168Z,12.76
2022-10-15T03:17:42.801Z,12.76
2022-10-15T03:20:10.448Z,12.76
2022-10-15T03:22:39.266Z,12.74
2022-10-15T03:25:07.182Z,12.72
2022-10-15T03:27:34.621Z,12.70
2022-10-15T03:30:02.064Z,12.67
2022-10-15T03:32:36.161Z,12.65
2022-10-15T03:35:05.780Z,12.61
2022-10-15T03:37:34.132Z,12.59
2022-10-15T03:40:01.777Z,12.57
2022-10-15T03:42:29.848Z,12.55
2022-10-15T03:44:57.379Z,12.54
2022-10-15T03:47:25.331Z,12.52
2022-10-15T03:49:53.733Z,12.52
2022-10-15T03:52:21.578Z,12.52
2022-10-15T03:54:50.972Z,12.52
2022-10-15T03:57:20.763Z,12.53
2022-10-15T03:59:53.824Z,12.54
2022-10-15T04:02:24.796Z,12.53
2022-10-15T04:04:53.871Z,12.53
2022-10-15T04:07:21.725Z,12.53
2022-10-15T04:09:49.270Z,12.54
2022-10-15T04:12:27.130Z,12.55
2022-10-15T04:14:54.743Z,12.54
2022-10-15T04:17:22.538Z,12.54
2022-10-15T04:19:51.111Z,12.55
2022-10-15T04:22:20.174Z,12.56
2022-10-15T04:24:52.072Z,12.57
2022-10-15T04:27:27.933Z,12.58
2022-10-15T04:30:04.413Z,12.61
2022-10-15T04:32:32.318Z,12.62
2022-10-15T04:34:59.952Z,12.64
2022-10-15T04:37:46.936Z,12.66
2022-10-15T04:40:14.722Z,12.67
2022-10-15T04:42:42.103Z,12.69
2022-10-15T04:45:10.211Z,12.70
2022-10-15T04:47:38.490Z,12.72
2022-10-15T04:50:09.617Z,12.74
2022-10-15T04:52:55.352Z,12.77
2022-10-15T04:55:24.205Z,12.77
2022-10-15T04:57:56.713Z,12.80
2022-10-15T05:00:29.380Z,12.81
2022-10-15T05:03:12.083Z,12.81
2022-10-15T05:05:47.635Z,12.82
2022-10-15T05:08:15.129Z,12.84
2022-10-15T05:11:03.458Z,12.84
2022-10-15T05:13:32.485Z,12.86
2022-10-15T05:16:10.113Z,12.89
2022-10-15T05:18:38.950Z,12.89
2022-10-15T05:21:08.122Z,12.91
2022-10-15T05:23:37.247Z,12.93
2022-10-15T05:26:29.713Z,12.94
2022-10-15T05:29:01.359Z,12.97
2022-10-15T05:31:33.495Z,12.98
2022-10-15T05:34:30.306Z,12.98
2022-10-15T05:37:02.170Z,13.00
2022-10-15T05:39:29.768Z,13.03
2022-10-15T05:41:57.167Z,13.04
2022-10-15T05:44:35.597Z,13.04
2022-10-15T05:47:02.978Z,13.05
2022-10-15T05:49:30.956Z,13.07
2022-10-15T05:52:05.667Z,13.08
2022-10-15T05:55:02.212Z,13.07
2022-10-15T05:57:29.561Z,13.07
2022-10-15T05:59:56.930Z,13.08
2022-10-15T06:02:24.685Z,13.10
2022-10-15T06:04:53.347Z,13.12
2022-10-15T06:07:20.950Z,13.13
2022-10-15T06:09:48.443Z,13.14
2022-10-15T06:12:17.891Z,13.16
2022-10-15T06:14:45.232Z,13.18
2022-10-15T06:17:12.609Z,13.20
2022-10-15T06:19:42.770Z,13.21
2022-10-15T06:22:10.529Z,13.23
2022-10-15T06:24:37.886Z,13.25
2022-10-15T06:27:09.908Z,13.26
2022-10-15T06:29:37.330Z,13.28
2022-10-15T06:32:04.860Z,13.30
2022-10-15T06:34:32.199Z,13.31
2022-10-15T06:36:59.573Z,13.32
2022-10-15T06:39:27.016Z,13.33
2022-10-15T06:41:54.429Z,13.35
2022-10-15T06:44:22.002Z,13.35
2022-10-15T06:46:49.394Z,13.36
2022-10-15T06:49:16.761Z,13.38
2022-10-15T06:51:44.116Z,13.40
2022-10-15T06:54:11.510Z,13.43
2022-10-15T06:56:38.848Z,13.45
2022-10-15T06:59:06.208Z,13.45
2022-10-15T07:01:36.167Z,13.46
2022-10-15T07:04:05.980Z,13.48
2022-10-15T07:06:35.402Z,13.51
2022-10-15T07:09:04.215Z,13.52
2022-10-15T07:11:31.885Z,13.55
2022-10-15T07:13:59.320Z,13.56
2022-10-15T07:16:26.699Z,13.58
2022-10-15T07:18:54.107Z,13.61
2022-10-15T07:21:21.443Z,13.65
2022-10-15T07:23:48.818Z,13.69
2022-10-15T07:26:16.282Z,13.71
2022-10-15T07:28:43.685Z,13.73
2022-10-15T07:31:11.247Z,13.76
2022-10-15T07:33:38.708Z,13.77
2022-10-15T07:36:10.067Z,13.80
2022-10-15T07:38:37.522Z,13.82
2022-10-15T07:41:06.306Z,13.83
2022-10-15T07:43:43.423Z,13.85
2022-10-15T07:46:11.610Z,13.86
2022-10-15T07:48:39.054Z,13.87
2022-10-15T07:51:08.255Z,13.90
2022-10-15T07:53:35.680Z,13.95
2022-10-15T07:56:10.450Z,14.00
2022-10-15T07:58:39.214Z,14.04
2022-10-15T08:01:10.129Z,14.09
2022-10-15T08:03:38.464Z,14.13
2022-10-15T08:06:08.044Z,14.16
2022-10-15T08:08:37.275Z,14.19
2022-10-15T08:11:16.768Z,14.21
2022-10-15T08:13:46.969Z,14.22
2022-10-15T08:16:16.215Z,14.25
2022-10-15T08:18:45.071Z,14.27
2022-10-15T08:21:12.863Z,14.33
2022-10-15T08:23:40.219Z,14.41
2022-10-15T08:26:07.802Z,14.47
2022-10-15T08:28:36.232Z,14.54
2022-10-15T08:31:05.943Z,14.63
2022-10-15T08:33:38.211Z,14.74
2022-10-15T08:36:07.473Z,14.84
2022-10-15T08:38:35.220Z,14.89
2022-10-15T08:41:14.050Z,14.93
2022-10-15T08:43:43.717Z,14.97
2022-10-15T08:46:39.275Z,15.00
2022-10-15T08:49:17.029Z,15.03
2022-10-15T08:51:58.841Z,15.10
2022-10-15T08:54:33.378Z,15.16
2022-10-15T08:57:20.660Z,15.23
2022-10-15T09:00:05.370Z,15.31
2022-10-15T09:02:59.399Z,15.38
2022-10-15T09:06:03.127Z,15.45
2022-10-15T09:09:16.621Z,15.51
2022-10-15T09:12:10.566Z,15.58
2022-10-15T09:14:43.535Z,15.64
2022-10-15T09:17:27.017Z,15.67
2022-10-15T09:19:57.874Z,15.67
2022-10-15T09:22:31.223Z,15.67
2022-10-15T09:24:58.652Z,15.69
2022-10-15T09:27:38.175Z,15.75
2022-10-15T09:30:29.622Z,15.76
2022-10-15T09:33:08.801Z,15.77
2022-10-15T09:35:52.880Z,15.81
2022-10-15T09:39:00.976Z,15.79
2022-10-15T09:41:40.661Z,15.78
2022-10-15T09:44:14.151Z,15.78
2022-10-15T09:46:51.270Z,15.79
2022-10-15T09:49:22.940Z,15.79
2022-10-15T09:52:09.466Z,15.80
2022-10-15T09:55:05.009Z,15.76
2022-10-15T09:57:36.278Z,15.74
2022-10-15T10:00:13.477Z,15.75
2022-10-15T10:02:41.291Z,15.76
2022-10-15T10:05:31.031Z,15.77
2022-10-15T10:08:25.283Z,15.78
2022-10-15T10:10:59.369Z,15.80
2022-10-15T10:13:49.821Z,15.83
2022-10-15T10:16:21.220Z,15.80
2022-10-15T10:19:15.524Z,15.79
2022-10-15T10:21:44.060Z,15.76
2022-10-15T10:24:31.755Z,15.76
2022-10-15T10:27:00.969Z,15.74
2022-10-15T10:29:36.440Z,15.75
2022-10-15T10:32:21.895Z,15.76
2022-10-15T10:34:52.805Z,15.76
2022-10-15T10:37:21.031Z,15.74
2022-10-15T10:39:55.860Z,15.74
2022-10-15T10:42:33.793Z,15.74
2022-10-15T10:45:18.822Z,15.73
2022-10-15T10:47:47.455Z,15.72
2022-10-15T10:50:37.686Z,15.73
2022-10-15T10:53:25.211Z,15.75
2022-10-15T10:55:56.381Z,15.75
2022-10-15T10:58:32.996Z,15.78
2022-10-15T11:01:00.849Z,15.77
2022-10-15T11:03:42.803Z,15.81
2022-10-15T11:06:29.275Z,15.82
2022-10-15T11:09:45.729Z,15.81
2022-10-15T11:12:58.756Z,15.82
2022-10-15T11:15:55.902Z,15.84
2022-10-15T11:18:41.292Z,15.87
2022-10-15T11:21:48.853Z,15.90
2022-10-15T11:24:42.483Z,15.92
2022-10-15T11:27:39.461Z,15.93
2022-10-15T11:30:58.727Z,15.96
2022-10-15T11:33:36.913Z,15.98
2022-10-15T11:36:42.662Z,16.02
2022-10-15T11:39:37.193Z,16.05
2022-10-15T11:42:24.866Z,16.11
2022-10-15T11:45:20.108Z,16.18
2022-10-15T11:48:26.857Z,16.23
2022-10-15T11:51:08.753Z,16.27
2022-10-15T11:54:12.681Z,16.32
2022-10-15T11:56:47.271Z,16.35
2022-10-15T11:59:17.418Z,16.38
2022-10-15T12:02:04.988Z,16.43
2022-10-15T12:04:50.633Z,16.46
2022-10-15T12:07:26.555Z,16.48
2022-10-15T12:10:43.163Z,16.54
2022-10-15T12:13:36.278Z,16.60
2022-10-15T12:16:53.808Z,16.64
2022-10-15T12:19:34.249Z,16.66
2022-10-15T12:22:11.536Z,16.73
2022-10-15T12:24:45.106Z,16.78
2022-10-15T12:27:30.246Z,16.81
2022-10-15T12:30:00.372Z,16.84
2022-10-15T12:32:41.181Z,16.92
2022-10-15T12:35:14.656Z,16.99
2022-10-15T12:37:46.369Z,17.04
2022-10-15T12:40:28.203Z,17.14
2022-10-15T12:43:01.335Z,17.21
2022-10-15T12:45:40.235Z,17.27
2022-10-15T12:48:07.997Z,17.32
2022-10-15T12:50:37.314Z,17.36
2022-10-15T12:53:26.122Z,17.41
2022-10-15T12:56:10.662Z,17.52
2022-10-15T12:58:51.008Z,17.59
2022-10-15T13:01:18.455Z,17.66
2022-10-15T13:03:48.589Z,17.73
2022-10-15T13:06:22.169Z,17.78
2022-10-15T13:09:10.891Z,17.82
2022-10-15T13:14:28.841Z,17.93
2022-10-15T13:17:02.759Z,17.97
2022-10-15T13:19:37.803Z,17.96
2022-10-15T13:22:23.706Z,17.99
2022-10-15T13:24:51.341Z,18.02
2022-10-15T13:27:37.363Z,18.02
2022-10-15T13:30:14.042Z,18.00
2022-10-15T13:32:51.346Z,18.02
2022-10-15T13:35:26.121Z,18.03
2022-10-15T13:37:53.611Z,18.06
2022-10-15T13:40:26.031Z,18.07
2022-10-15T13:43:01.893Z,18.09
2022-10-15T13:45:30.713Z,18.09
2022-10-15T13:47:58.798Z,18.09
2022-10-15T13:50:34.886Z,18.09
2022-10-15T13:53:41.591Z,18.09
2022-10-15T13:56:27.561Z,18.13
2022-10-15T13:58:57.193Z,18.16
2022-10-15T14:01:27.524Z,18.20
2022-10-15T14:04:00.714Z,18.28
2022-10-15T14:06:39.188Z,18.34
2022-10-15T14:09:28.431Z,18.40
2022-10-15T14:12:00.615Z,18.44
2022-10-15T14:14:49.325Z,18.47
2022-10-15T14:17:17.431Z,18.43
2022-10-15T14:20:22.073Z,18.40
2022-10-15T14:22:49.676Z,18.30
2022-10-15T14:25:24.854Z,18.25
2022-10-15T14:27:52.845Z,18.20
2022-10-15T14:30:39.406Z,18.17
2022-10-15T14:33:38.418Z,18.09
2022-10-15T14:36:22.197Z,18.01
2022-10-15T14:38:53.811Z,17.96
2022-10-15T14:41:29.159Z,17.92
2022-10-15T14:44:18.581Z,17.90
2022-10-15T14:46:51.663Z,17.87
2022-10-15T14:49:26.045Z,17.87
2022-10-15T14:52:05.995Z,17.83
2022-10-15T14:54:41.176Z,17.79
2022-10-15T14:57:26.779Z,17.78
2022-10-15T14:59:57.316Z,17.78
2022-10-15T15:02:28.340Z,17.76
2022-10-15T15:05:13.761Z,17.74
2022-10-15T15:07:41.107Z,17.65
2022-10-15T15:10:10.772Z,17.57
2022-10-15T15:12:39.838Z,17.54
2022-10-15T15:15:17.593Z,17.50
2022-10-15T15:17:45.272Z,17.54
2022-10-15T15:20:12.829Z,17.52
2022-10-15T15:22:42.267Z,17.47
2022-10-15T15:25:28.327Z,17.44
2022-10-15T15:27:57.820Z,17.38
2022-10-15T15:30:27.796Z,17.32
2022-10-15T15:32:55.430Z,17.26
2022-10-15T15:35:44.214Z,17.24
2022-10-15T15:38:12.614Z,17.17
2022-10-15T15:40:39.986Z,17.14
2022-10-15T15:43:09.328Z,17.11
2022-10-15T15:45:36.787Z,17.06
2022-10-15T15:48:05.732Z,17.04
2022-10-15T15:50:33.656Z,17.00
2022-10-15T15:53:01.305Z,16.99
2022-10-15T15:55:31.472Z,16.97
2022-10-15T15:57:58.840Z,16.92
2022-10-15T16:00:26.514Z,16.88
2022-10-15T16:02:57.019Z,16.82
2022-10-15T16:05:25.493Z,16.71
2022-10-15T16:07:52.902Z,16.66
2022-10-15T16:10:20.233Z,16.61
2022-10-15T16:12:47.746Z,16.57
2022-10-15T16:15:15.481Z,16.52
2022-10-15T16:17:43.730Z,16.46
2022-10-15T16:20:12.630Z,16.39
2022-10-15T16:22:40.280Z,16.33
2022-10-15T16:25:09.009Z,16.27
2022-10-15T16:27:36.374Z,16.20
2022-10-15T16:30:04.850Z,16.13
2022-10-15T16:32:32.231Z,16.06
2022-10-15T16:34:59.654Z,15.99
2022-10-15T16:37:27.168Z,15.92
2022-10-15T16:39:54.943Z,15.86
2022-10-15T16:42:22.333Z,15.76
2022-10-15T16:44:50.177Z,15.67
2022-10-15T16:47:17.513Z,15.59
2022-10-15T16:49:44.856Z,15.53
2022-10-15T16:52:12.536Z,15.47
2022-10-15T16:54:39.890Z,15.42
2022-10-15T16:57:07.252Z,15.36
2022-10-15T16:59:34.583Z,15.29
2022-10-15T17:02:02.161Z,15.21
2022-10-15T17:04:29.691Z,15.15
2022-10-15T17:06:57.107Z,15.08
2022-10-15T17:09:24.667Z,15.00
2022-10-15T17:11:52.081Z,14.92
2022-10-15T17:14:19.482Z,14.83
2022-10-15T17:16:50.484Z,14.77
2022-10-15T17:19:23.445Z,14.69
2022-10-15T17:21:52.238Z,14.64
2022-10-15T17:24:19.849Z,14.55
2022-10-15T17:26:49.759Z,14.51
2022-10-15T17:29:20.676Z,14.45
2022-10-15T17:31:50.055Z,14.37
2022-10-15T17:34:18.573Z,14.32
2022-10-15T17:36:48.617Z,14.27
2022-10-15T17:39:21.634Z,14.22
2022-10-15T17:41:50.997Z,14.16
2022-10-15T17:44:19.594Z,14.12
2022-10-15T17:49:25.446Z,14.04
2022-10-15T17:51:52.791Z,14.02
2022-10-15T17:54:20.125Z,13.99
2022-10-15T17:56:51.085Z,13.96
2022-10-15T17:59:18.419Z,13.91
2022-10-15T18:02:01.372Z,13.86
2022-10-15T18:04:31.105Z,13.81
2022-10-15T18:06:58.633Z,13.79
2022-10-15T18:09:28.082Z,13.78
2022-10-15T18:11:57.605Z,13.73
2022-10-15T18:14:29.393Z,13.67
2022-10-15T18:16:57.643Z,13.63
2022-10-15T18:19:26.532Z,13.58
2022-10-15T18:21:55.607Z,13.55
2022-10-15T18:24:23.744Z,13.53
2022-10-15T18:26:52.199Z,13.50
2022-10-15T18:29:20.651Z,13.47
2022-10-15T18:31:49.464Z,13.45
2022-10-15T18:34:18.567Z,13.43
2022-10-15T18:36:45.925Z,13.41
2022-10-15T18:39:13.289Z,13.38
2022-10-15T18:41:40.997Z,13.38
2022-10-15T18:44:16.567Z,13.38
2022-10-15T18:46:45.425Z,13.35
2022-10-15T18:49:15.689Z,13.36
2022-10-15T18:51:46.022Z,13.37
2022-10-15T18:54:13.589Z,13.38
2022-10-15T18:56:41.606Z,13.39
2022-10-15T18:59:09.664Z,13.39
2022-10-15T19:01:41.770Z,13.39
2022-10-15T19:04:20.347Z,13.39
2022-10-15T19:06:51.678Z,13.38
2022-10-15T19:09:23.670Z,13.38
2022-10-15T19:11:54.956Z,13.38
2022-10-15T19:14:24.661Z,13.37
2022-10-15T19:16:52.495Z,13.36
2022-10-15T19:19:22.308Z,13.37
2022-10-15T19:21:51.853Z,13.35
2022-10-15T19:24:21.537Z,13.34
2022-10-15T19:26:51.225Z,13.34
2022-10-15T19:29:19.951Z,13.33
2022-10-15T19:31:50.026Z,13.34
2022-10-15T19:34:17.507Z,13.34
2022-10-15T19:36:47.937Z,13.33
2022-10-15T19:39:21.272Z,13.31
2022-10-15T19:41:50.572Z,13.31
2022-10-15T19:44:24.890Z,13.30
2022-10-15T19:46:52.949Z,13.28
2022-10-15T19:49:20.927Z,13.28
2022-10-15T19:51:50.021Z,13.27
2022-10-15T19:54:17.708Z,13.26
2022-10-15T19:56:45.334Z,13.24
2022-10-15T19:59:13.583Z,13.22
2022-10-15T20:01:40.967Z,13.21
2022-10-15T20:04:08.351Z,13.19
2022-10-15T20:06:38.452Z,13.19
2022-10-15T20:09:07.169Z,13.19
2022-10-15T20:11:37.738Z,13.20
2022-10-15T20:14:05.472Z,13.19
2022-10-15T20:16:33.644Z,13.19
2022-10-15T20:19:04.648Z,13.21
2022-10-15T20:21:32.681Z,13.22
2022-10-15T20:24:04.306Z,13.21
2022-10-15T20:26:32.691Z,13.21
2022-10-15T20:29:00.229Z,13.20
2022-10-15T20:31:28.693Z,13.20
2022-10-15T20:33:56.172Z,13.21
2022-10-15T20:36:25.729Z,13.21
2022-10-15T20:38:53.270Z,13.21
2022-10-15T20:41:20.639Z,13.22
2022-10-15T20:43:54.808Z,13.21
2022-10-15T20:46:32.889Z,13.19
2022-10-15T20:51:44.813Z,13.18
2022-10-15T20:54:14.194Z,13.17
2022-10-15T20:56:42.507Z,13.17
2022-10-15T20:59:09.887Z,13.17
2022-10-15T21:01:37.653Z,13.17
2022-10-15T21:04:06.164Z,13.17
2022-10-15T21:06:33.594Z,13.18
2022-10-15T21:09:01.240Z,13.17
2022-10-15T21:11:28.816Z,13.16
2022-10-15T21:13:56.381Z,13.15
2022-10-15T21:16:26.012Z,13.14
2022-10-15T21:18:55.778Z,13.14
2022-10-15T21:21:23.225Z,13.14
2022-10-15T21:23:51.109Z,13.13
2022-10-15T21:26:19.036Z,13.13
2022-10-15T21:28:46.979Z,13.14
2022-10-15T21:31:17.543Z,13.12
2022-10-15T21:33:46.014Z,13.12
2022-10-15T21:36:14.932Z,13.11
2022-10-15T21:38:42.622Z,13.11
2022-10-15T21:41:10.396Z,13.10
2022-10-15T21:43:37.818Z,13.11
2022-10-15T21:46:12.289Z,13.09
2022-10-15T21:48:41.981Z,13.09
2022-10-15T21:51:17.317Z,13.08
2022-10-15T21:53:46.445Z,13.07
2022-10-15T21:56:16.855Z,13.08
2022-10-15T21:58:44.566Z,13.07
2022-10-15T22:01:24.731Z,13.07
2022-10-15T22:03:57.978Z,13.05
2022-10-15T22:06:27.338Z,13.03
2022-10-15T22:08:54.939Z,13.02
2022-10-15T22:11:27.611Z,13.00
2022-10-15T22:13:59.571Z,13.00
2022-10-15T22:16:28.627Z,12.97
2022-10-15T22:18:57.410Z,12.97
2022-10-15T22:21:28.831Z,12.95
2022-10-15T22:24:07.117Z,12.92
2022-10-15T22:26:39.697Z,12.89
2022-10-15T22:29:11.602Z,12.88
2022-10-15T22:31:39.451Z,12.86
2022-10-15T22:34:09.737Z,12.84
2022-10-15T22:36:37.273Z,12.82
2022-10-15T22:39:07.571Z,12.82
2022-10-15T22:41:39.793Z,12.80
2022-10-15T22:44:11.972Z,12.80
2022-10-15T22:46:40.419Z,12.78
2022-10-15T22:49:08.607Z,12.78
2022-10-15T22:51:35.987Z,12.77
2022-10-15T22:54:03.491Z,12.75
2022-10-15T22:56:31.773Z,12.75
2022-10-15T22:58:59.725Z,12.74
2022-10-15T23:01:30.822Z,12.73
2022-10-15T23:04:03.428Z,12.73
2022-10-15T23:06:33.773Z,12.72
2022-10-15T23:09:02.835Z,12.72
2022-10-15T23:11:40.143Z,12.70
2022-10-15T23:14:12.265Z,12.71
2022-10-15T23:16:43.785Z,12.70
2022-10-15T23:19:16.159Z,12.70
2022-10-15T23:21:47.812Z,12.69
2022-10-15T23:24:16.872Z,12.65
2022-10-15T23:26:45.232Z,12.64
2022-10-15T23:29:23.369Z,12.66
2022-10-15T23:31:52.178Z,12.64
2022-10-15T23:34:23.363Z,12.65
2022-10-15T23:36:51.370Z,12.66
2022-10-15T23:39:23.352Z,12.65
2022-10-15T23:41:50.730Z,12.67
2022-10-15T23:44:18.709Z,12.67
2022-10-15T23:46:46.489Z,12.66
2022-10-15T23:49:13.942Z,12.67
2022-10-15T23:51:41.597Z,12.66
2022-10-15T23:54:15.256Z,12.67
2022-10-15T23:56:42.695Z,12.65
2022-10-15T23:59:10.682Z,12.64
